createdAt,value
2022-11-17T00:00:48.905Z,2
2022-11-17T00:06:39.604Z,1.9
2022-11-17T00:12:38.947Z,2.3
2022-11-17T00:18:28.909Z,1.7
2022-11-17T00:24:20.011Z,1.8
2022-11-17T00:30:13.046Z,1.8
2022-11-17T00:36:03.325Z,1.8
2022-11-17T00:41:53.701Z,1.9
2022-11-17T00:47:44.281Z,1.8
2022-11-17T00:53:35.647Z,1.8
2022-11-17T07:27:05.803Z,1.6
2022-11-17T07:33:03.241Z,1
2022-11-17T07:39:01.854Z,1.3
2022-11-17T07:45:04.629Z,1.8
2022-11-17T08:03:10.935Z,2.3
2022-11-17T08:09:17.615Z,1.8
2022-11-17T08:15:25.649Z,2.2
2022-11-17T08:21:16.219Z,1.6
2022-11-17T08:28:44.282Z,2
2022-11-17T08:34:51.910Z,1.6
2022-11-17T08:40:44.203Z,1.7
2022-11-17T08:46:55.424Z,1.6
2022-11-17T08:59:29.797Z,1.2
2022-11-17T09:11:45.420Z,1.4
2022-11-17T09:17:53.078Z,1.2
2022-11-17T09:30:11.010Z,1.6
2022-11-17T09:36:25.119Z,1.2
2022-11-17T09:42:35.412Z,1.1
2022-11-17T09:48:57.879Z,1.4
2022-11-17T09:54:51.038Z,1
2022-11-17T10:00:54.726Z,1.1
2022-11-17T10:06:50.771Z,1.3
2022-11-17T10:12:45.444Z,1
2022-11-17T10:18:52.004Z,0.8
2022-11-17T10:24:47.992Z,0.9
2022-11-17T10:30:53.793Z,0.8
2022-11-17T10:50:00.090Z,1.1
2022-11-17T10:55:53.967Z,1.2
2022-11-17T11:02:19.643Z,1.1
2022-11-17T11:08:22.395Z,1
2022-11-17T11:14:28.243Z,0.8
2022-11-17T11:20:21.726Z,0.9
2022-11-17T11:32:17.420Z,1.8
2022-11-17T11:38:07.322Z,1.7
2022-11-17T11:43:59.554Z,1
2022-11-17T11:49:50.327Z,1
2022-11-17T11:55:40.533Z,1
2022-11-17T12:01:30.533Z,0.9
2022-11-17T12:07:19.473Z,1.1
2022-11-17T12:13:09.455Z,0.8
2022-11-17T12:18:59.441Z,0.9
2022-11-17T12:24:49.281Z,1.3
2022-11-17T12:30:41.518Z,1.4
2022-11-17T12:36:39.913Z,1.2
2022-11-17T12:42:29.298Z,1.2
2022-11-17T12:48:41.502Z,1.3
2022-11-17T12:54:31.040Z,1
2022-11-17T13:00:21.798Z,1.3
2022-11-17T13:06:42.148Z,0.9
2022-11-17T13:12:31.000Z,1
2022-11-17T13:18:21.371Z,1.1
2022-11-17T13:24:15.249Z,1.3
2022-11-17T13:30:08.926Z,0.9
2022-11-17T13:35:59.783Z,1.1
2022-11-17T13:41:57.834Z,1
2022-11-17T13:47:59.689Z,1.2
2022-11-17T13:53:57.698Z,0.9
2022-11-17T13:59:48.982Z,1.4
2022-11-17T14:05:44.263Z,1.2
2022-11-17T14:11:35.523Z,1.1
2022-11-17T14:17:27.430Z,1.1
2022-11-17T14:23:19.462Z,1.3
2022-11-17T14:29:12.009Z,1.2
2022-11-17T14:35:05.334Z,1.3
2022-11-17T14:40:56.886Z,1.5
2022-11-17T14:46:47.885Z,1.3
2022-11-17T14:52:40.637Z,0.8
2022-11-17T14:58:40.945Z,1.3
2022-11-17T15:05:27.690Z,0.9
2022-11-17T15:11:41.604Z,1.5
2022-11-17T15:17:31.916Z,1.3
2022-11-17T15:23:35.940Z,1.2
2022-11-17T16:34:07.628Z,1.6
2022-11-17T16:39:57.095Z,2.7
2022-11-17T16:45:49.848Z,3.7
2022-11-17T16:51:41.813Z,1.6
2022-11-17T16:57:36.837Z,2.6
2022-11-17T17:03:28.318Z,2.4
2022-11-17T17:09:31.349Z,3.3
2022-11-17T17:15:23.955Z,3.1
2022-11-17T17:21:15.570Z,2.3
2022-11-17T17:27:09.462Z,2.4
2022-11-17T17:33:02.808Z,2.4
2022-11-17T17:38:58.970Z,2.6
2022-11-17T17:44:50.105Z,3
2022-11-17T17:50:41.572Z,3.5
2022-11-17T17:56:33.503Z,3
2022-11-17T18:02:24.975Z,2.8
2022-11-17T18:08:20.126Z,3
2022-11-17T18:14:14.998Z,3.3
2022-11-17T18:20:06.104Z,3.4
2022-11-17T18:25:56.289Z,3.7
2022-11-17T18:31:48.772Z,3.7
2022-11-17T18:37:52.043Z,4.5
2022-11-17T18:43:54.278Z,3.4
2022-11-17T18:49:44.256Z,3
2022-11-17T18:55:34.880Z,3.6
2022-11-17T19:01:24.586Z,3
2022-11-17T19:07:15.445Z,3.9
2022-11-17T19:13:07.410Z,5.5
2022-11-17T19:18:57.786Z,3.4
2022-11-17T19:24:51.493Z,3.4
2022-11-17T19:30:43.362Z,4.2
2022-11-17T19:36:38.575Z,3.7
2022-11-17T19:42:27.569Z,3.7
2022-11-17T19:48:16.713Z,3.5
2022-11-17T19:54:07.416Z,4.7
2022-11-17T19:59:57.512Z,4.8
2022-11-17T20:05:48.515Z,4.9
2022-11-17T20:11:39.356Z,5.8
2022-11-17T20:17:30.390Z,6.6
2022-11-17T20:23:21.911Z,7.9
2022-11-17T20:29:11.671Z,3.3
2022-11-17T20:35:02.077Z,3.4
2022-11-17T20:40:52.952Z,3.2
2022-11-17T20:46:45.786Z,2.9
2022-11-17T20:52:40.995Z,3
2022-11-17T21:05:00.453Z,2.7
2022-11-17T21:11:06.986Z,3.2
2022-11-17T21:17:03.204Z,3.4
2022-11-17T21:23:02.366Z,3.2
2022-11-17T21:47:44.229Z,2.3
2022-11-17T21:53:54.467Z,2.8
2022-11-17T22:18:46.407Z,3
2022-11-17T22:24:54.991Z,3.2
2022-11-17T22:30:51.558Z,3.5
2022-11-17T22:36:49.985Z,4
2022-11-17T22:42:53.195Z,3.7
2022-11-17T22:48:48.733Z,4.2
2022-11-17T22:54:43.560Z,4.1
2022-11-17T23:00:48.105Z,3.7
2022-11-17T23:06:45.889Z,4.2
2022-11-17T23:12:48.352Z,4.2
2022-11-17T23:18:38.647Z,4.2
2022-11-17T23:24:42.356Z,4.1
2022-11-17T23:30:36.724Z,3.8
2022-11-17T23:36:30.758Z,4.5
2022-11-17T23:42:32.375Z,3.8
2022-11-17T23:48:49.438Z,4.6
2022-11-17T23:55:09.499Z,3.6
